Washington Green, Connecticut
Current Conditions -  °F | °C
As of 12:45 PM on Tuesday 21 Oct 2014 (Local Time) from KOXC Reporting Station
Broken Clouds Broken Clouds  
Wind Chill: 63°   Ceiling: 6000
Heat Index: 63°   Visibility: 10mi
Dew Point: 48°   Wind: 9mph
Humidity: 59%   Direction: 120°ESE
Pressure: 29.91"   Gusts: NA
Location:  41.6326°N, 73.2874°W
Report Text: KOXC 211645Z 12008KT 070V140 10SM BKN060 17/09 A2991
Loading
Personal Weather Stations






























Interactive Weather Map
Tropical Storm Tracking
New forecast layout! Learn more

10-Day Weather Forecast

Advertisements
Track Severe Weather on mobile